createdAt,value
2018-03-04T00:00:46.150Z,78.30
2018-03-04T00:03:20.065Z,80.03
2018-03-04T00:05:54.073Z,75.13
2018-03-04T00:08:27.701Z,74.60
2018-03-04T00:11:01.478Z,67.83
2018-03-04T00:13:35.153Z,66.57
2018-03-04T00:16:09.555Z,63.33
2018-03-04T00:18:43.389Z,62.93
2018-03-04T00:21:17.230Z,63.80
2018-03-04T00:23:51.356Z,62.30
2018-03-04T00:26:26.414Z,64.10
2018-03-04T00:29:00.066Z,64.87
2018-03-04T00:31:33.889Z,63.53
2018-03-04T00:34:07.724Z,69.17
2018-03-04T00:36:42.364Z,64.67
2018-03-04T00:39:17.346Z,66.57
2018-03-04T00:41:52.073Z,69.87
2018-03-04T00:44:26.634Z,64.73
2018-03-04T00:47:01.186Z,70.47
2018-03-04T00:49:35.330Z,65.37
2018-03-04T00:52:09.285Z,64.27
2018-03-04T00:54:43.018Z,65.30
2018-03-04T00:57:16.998Z,61.80
2018-03-04T00:59:50.837Z,61.73
2018-03-04T01:02:24.836Z,60.73
2018-03-04T01:04:59.215Z,64.13
2018-03-04T01:07:33.737Z,60.23
2018-03-04T01:10:08.944Z,62.37
2018-03-04T01:12:42.972Z,65.27
2018-03-04T01:15:18.096Z,60.30
2018-03-04T01:17:53.175Z,59.77
2018-03-04T01:20:27.175Z,65.47
2018-03-04T01:23:00.957Z,59.87
2018-03-04T01:25:34.862Z,60.23
2018-03-04T01:28:08.958Z,61.33
2018-03-04T01:30:42.951Z,62.77
2018-03-04T01:33:16.783Z,63.60
2018-03-04T01:35:50.716Z,61.70
2018-03-04T01:38:24.970Z,62.37
2018-03-04T01:40:59.253Z,59.07
2018-03-04T01:43:33.106Z,59.60
2018-03-04T01:46:06.730Z,59.53
2018-03-04T01:48:40.597Z,61.03
2018-03-04T01:51:14.650Z,60.73
2018-03-04T01:53:48.768Z,61.03
2018-03-04T01:56:22.629Z,60.80
2018-03-04T01:58:56.681Z,62.67
2018-03-04T02:01:30.593Z,61.47
2018-03-04T02:04:04.520Z,60.57
2018-03-04T02:06:38.446Z,63.27
2018-03-04T02:09:12.687Z,58.40
2018-03-04T02:11:46.922Z,61.93
2018-03-04T02:14:21.333Z,57.97
2018-03-04T02:16:55.703Z,62.90
2018-03-04T02:19:29.545Z,64.53
2018-03-04T02:22:03.599Z,65.93
2018-03-04T02:24:37.791Z,63.07
2018-03-04T02:27:11.533Z,62.70
2018-03-04T02:29:45.749Z,61.50
2018-03-04T02:32:19.361Z,62.83
2018-03-04T02:34:53.145Z,61.20
2018-03-04T02:37:27.969Z,65.37
2018-03-04T02:40:02.086Z,58.77
2018-03-04T02:42:36.488Z,65.47
2018-03-04T02:45:10.671Z,64.20
2018-03-04T02:47:44.655Z,64.83
2018-03-04T02:50:18.706Z,64.37
2018-03-04T02:52:52.580Z,62.30
2018-03-04T02:55:26.506Z,62.87
2018-03-04T02:58:00.271Z,61.63
2018-03-04T03:00:35.797Z,59.33
2018-03-04T03:03:09.587Z,57.27
2018-03-04T03:05:44.162Z,61.47
2018-03-04T03:08:18.135Z,62.10
2018-03-04T03:10:52.712Z,63.97
2018-03-04T03:13:26.846Z,62.33
2018-03-04T03:16:00.708Z,62.40
2018-03-04T03:18:36.139Z,61.87
2018-03-04T03:21:10.211Z,58.43
2018-03-04T03:23:43.986Z,60.00
2018-03-04T03:26:17.956Z,60.67
2018-03-04T03:28:53.082Z,60.77
2018-03-04T03:31:27.070Z,58.40
2018-03-04T03:34:00.948Z,57.93
2018-03-04T03:36:35.664Z,58.07
2018-03-04T03:39:09.554Z,58.00
2018-03-04T03:41:44.603Z,57.87
2018-03-04T03:44:18.460Z,57.80
2018-03-04T03:46:52.648Z,57.33
2018-03-04T03:49:27.136Z,58.93
2018-03-04T03:52:02.486Z,58.13
2018-03-04T03:54:37.065Z,57.77
2018-03-04T03:57:12.457Z,59.47
2018-03-04T03:59:46.708Z,59.27
2018-03-04T04:02:20.670Z,57.00
2018-03-04T04:04:55.161Z,57.67
2018-03-04T04:07:30.058Z,57.03
2018-03-04T04:10:04.929Z,59.50
2018-03-04T04:12:38.994Z,58.27
2018-03-04T04:15:12.940Z,57.20
2018-03-04T04:17:46.617Z,58.57
2018-03-04T04:20:21.273Z,56.87
2018-03-04T04:22:55.680Z,54.83
2018-03-04T04:25:30.548Z,54.87
2018-03-04T04:28:04.709Z,57.07
2018-03-04T04:30:38.440Z,57.47
2018-03-04T04:33:12.189Z,57.20
2018-03-04T04:35:46.093Z,56.57
2018-03-04T04:38:19.950Z,56.87
2018-03-04T04:40:53.809Z,54.47
2018-03-04T04:43:27.593Z,54.43
2018-03-04T04:46:01.521Z,52.67
2018-03-04T04:48:36.244Z,54.13
2018-03-04T04:51:11.430Z,54.73
2018-03-04T04:53:45.293Z,54.27
2018-03-04T04:56:19.878Z,55.37
2018-03-04T04:58:54.061Z,54.63
2018-03-04T05:01:29.345Z,53.37
2018-03-04T05:04:03.311Z,55.67
2018-03-04T05:06:37.463Z,54.93
2018-03-04T05:09:11.335Z,52.40
2018-03-04T05:11:45.376Z,50.73
2018-03-04T05:14:19.238Z,52.67
2018-03-04T05:16:53.126Z,49.93
2018-03-04T05:19:27.091Z,55.47
2018-03-04T05:22:01.150Z,55.10
2018-03-04T05:24:35.717Z,54.73
2018-03-04T05:27:10.678Z,54.37
2018-03-04T05:29:45.595Z,54.53
2018-03-04T05:32:19.439Z,54.13
2018-03-04T05:34:53.181Z,55.47
2018-03-04T05:37:26.948Z,55.53
2018-03-04T05:40:01.597Z,56.07
2018-03-04T05:42:35.529Z,56.03
2018-03-04T05:45:09.411Z,53.07
2018-03-04T05:47:44.017Z,56.00
2018-03-04T05:50:17.761Z,55.60
2018-03-04T05:52:51.403Z,57.07
2018-03-04T05:55:25.110Z,57.53
2018-03-04T05:57:59.919Z,57.90
2018-03-04T06:00:34.269Z,59.07
2018-03-04T06:03:07.922Z,57.53
2018-03-04T06:05:41.726Z,57.40
2018-03-04T06:08:16.361Z,56.73
2018-03-04T06:10:51.149Z,56.40
2018-03-04T06:13:25.935Z,54.17
2018-03-04T06:16:00.258Z,55.43
2018-03-04T06:18:34.829Z,55.53
2018-03-04T06:21:08.646Z,55.43
2018-03-04T06:23:42.353Z,55.33
2018-03-04T06:26:16.893Z,53.77
2018-03-04T06:28:51.655Z,52.77
2018-03-04T06:31:25.453Z,53.47
2018-03-04T06:34:00.032Z,55.10
2018-03-04T06:36:34.652Z,57.27
2018-03-04T06:39:08.857Z,56.03
2018-03-04T06:41:43.571Z,57.37
2018-03-04T06:44:17.968Z,55.33
2018-03-04T06:46:52.348Z,56.53
2018-03-04T06:49:27.297Z,55.37
2018-03-04T06:52:01.150Z,55.07
2018-03-04T06:54:35.109Z,56.10
2018-03-04T06:57:08.773Z,55.10
2018-03-04T06:59:42.459Z,59.93
2018-03-04T07:02:16.224Z,59.20
2018-03-04T07:04:50.069Z,59.47
2018-03-04T07:07:25.075Z,64.20
2018-03-04T07:09:59.280Z,66.20
2018-03-04T07:12:33.349Z,63.23
2018-03-04T07:15:07.261Z,67.03
2018-03-04T07:17:41.849Z,66.17
2018-03-04T07:20:15.757Z,62.43
2018-03-04T07:22:49.687Z,61.87
2018-03-04T07:25:23.573Z,59.97
2018-03-04T07:27:57.621Z,59.37
2018-03-04T07:30:31.374Z,59.53
2018-03-04T07:33:05.146Z,57.40
2018-03-04T07:35:39.289Z,62.80
2018-03-04T07:38:13.945Z,63.67
2018-03-04T07:40:47.638Z,63.07
2018-03-04T07:43:21.370Z,64.53
2018-03-04T07:45:55.486Z,62.27
2018-03-04T07:48:29.735Z,63.20
2018-03-04T07:51:03.574Z,63.63
2018-03-04T07:53:38.097Z,61.57
2018-03-04T07:56:13.319Z,61.07
2018-03-04T07:58:47.798Z,59.83
2018-03-04T08:01:21.703Z,60.20
2018-03-04T08:03:55.761Z,56.73
2018-03-04T08:06:29.482Z,56.00
2018-03-04T08:09:04.415Z,55.27
2018-03-04T08:11:38.941Z,58.07
2018-03-04T08:14:13.205Z,54.73
2018-03-04T08:16:46.917Z,52.47
2018-03-04T08:19:20.776Z,53.87
2018-03-04T08:21:55.549Z,50.37
2018-03-04T08:24:37.869Z,51.13
2018-03-04T08:27:24.909Z,51.30
2018-03-04T08:29:58.952Z,50.50
2018-03-04T08:32:32.826Z,54.77
2018-03-04T08:35:06.842Z,53.77
2018-03-04T08:37:41.358Z,55.97
2018-03-04T08:40:15.344Z,54.10
2018-03-04T08:42:49.467Z,57.23
2018-03-04T08:45:23.257Z,54.37
2018-03-04T08:47:57.060Z,50.80
2018-03-04T08:50:30.786Z,53.90
2018-03-04T08:53:04.822Z,52.00
2018-03-04T08:55:39.006Z,50.97
2018-03-04T08:58:12.715Z,51.23
2018-03-04T09:00:47.209Z,52.10
2018-03-04T09:03:21.576Z,49.37
2018-03-04T09:05:56.477Z,50.47
2018-03-04T09:08:30.723Z,47.80
2018-03-04T09:11:04.681Z,48.87
2018-03-04T09:13:38.425Z,47.07
2018-03-04T09:16:13.093Z,47.13
2018-03-04T09:18:47.015Z,47.73
2018-03-04T09:21:21.679Z,48.33
2018-03-04T09:23:55.798Z,49.53
2018-03-04T09:26:29.786Z,50.23
2018-03-04T09:29:03.800Z,50.73
2018-03-04T09:31:37.914Z,48.93
2018-03-04T09:34:12.630Z,49.37
2018-03-04T09:36:46.722Z,48.63
2018-03-04T09:39:20.505Z,51.20
2018-03-04T09:41:54.262Z,49.57
2018-03-04T09:44:28.278Z,50.77
2018-03-04T09:47:03.325Z,50.53
2018-03-04T09:49:37.350Z,49.80
2018-03-04T09:52:11.698Z,55.13
2018-03-04T09:54:45.506Z,55.53
2018-03-04T09:57:19.242Z,54.40
2018-03-04T09:59:53.159Z,56.37
2018-03-04T10:02:27.218Z,60.00
2018-03-04T10:05:01.770Z,55.00
2018-03-04T10:07:35.785Z,58.33
2018-03-04T10:10:09.609Z,59.63
2018-03-04T10:12:43.381Z,59.00
2018-03-04T10:15:17.030Z,58.20
2018-03-04T10:17:51.122Z,56.87
2018-03-04T10:20:24.986Z,57.77
2018-03-04T10:22:58.806Z,56.90
2018-03-04T10:25:33.687Z,57.73
2018-03-04T10:28:08.728Z,57.90
2018-03-04T10:30:42.936Z,56.40
2018-03-04T10:33:16.877Z,55.97
2018-03-04T10:35:50.705Z,55.87
2018-03-04T10:38:24.449Z,54.83
2018-03-04T10:40:58.637Z,55.97
2018-03-04T10:43:32.613Z,58.43
2018-03-04T10:46:06.789Z,53.90
2018-03-04T10:48:41.415Z,57.77
2018-03-04T10:51:15.529Z,57.67
2018-03-04T10:53:50.958Z,56.57
2018-03-04T10:56:24.925Z,58.03
2018-03-04T10:59:00.333Z,56.40
2018-03-04T11:01:35.381Z,55.80
2018-03-04T11:04:09.427Z,56.70
2018-03-04T11:06:43.018Z,57.33
2018-03-04T11:09:16.904Z,57.90
2018-03-04T11:11:50.691Z,58.03
2018-03-04T11:14:25.127Z,58.60
2018-03-04T11:16:59.894Z,57.23
2018-03-04T11:19:34.129Z,56.17
2018-03-04T11:22:07.765Z,55.33
2018-03-04T11:24:42.662Z,56.00
2018-03-04T11:27:16.842Z,55.60
2018-03-04T11:29:50.604Z,57.07
2018-03-04T11:32:24.507Z,57.73
2018-03-04T11:34:59.646Z,58.47
2018-03-04T11:37:34.633Z,58.23
2018-03-04T11:40:08.708Z,58.27
2018-03-04T11:42:42.569Z,56.77
2018-03-04T11:45:16.559Z,58.20
2018-03-04T11:47:50.803Z,57.83
2018-03-04T11:50:26.084Z,55.83
2018-03-04T11:53:00.359Z,59.73
2018-03-04T11:55:34.551Z,60.47
2018-03-04T11:58:09.189Z,61.10
2018-03-04T12:00:43.376Z,56.97
2018-03-04T12:03:18.002Z,60.80
2018-03-04T12:05:52.750Z,60.30
2018-03-04T12:08:27.162Z,59.33
2018-03-04T12:11:01.162Z,55.93
2018-03-04T12:13:35.010Z,53.60
2018-03-04T12:16:10.562Z,57.63
2018-03-04T12:18:45.466Z,55.77
2018-03-04T12:21:19.397Z,55.70
2018-03-04T12:23:53.266Z,55.33
2018-03-04T12:26:27.005Z,54.30
2018-03-04T12:29:01.594Z,55.20
2018-03-04T12:31:35.806Z,53.40
2018-03-04T12:34:09.648Z,54.50
2018-03-04T12:36:44.336Z,51.40
2018-03-04T12:39:18.199Z,53.20
2018-03-04T12:41:52.350Z,53.53
2018-03-04T12:44:26.070Z,53.27
2018-03-04T12:46:59.967Z,52.47
2018-03-04T12:49:33.830Z,49.60
2018-03-04T12:52:08.442Z,49.53
2018-03-04T12:54:43.175Z,49.97
2018-03-04T12:57:17.257Z,47.53
2018-03-04T12:59:51.093Z,57.90
2018-03-04T13:02:25.038Z,51.70
2018-03-04T13:04:58.998Z,50.90
2018-03-04T13:07:33.030Z,51.90
2018-03-04T13:10:07.738Z,49.87
2018-03-04T13:12:41.611Z,49.13
2018-03-04T13:15:15.302Z,52.87
2018-03-04T13:17:49.353Z,50.10
2018-03-04T13:20:23.158Z,49.47
2018-03-04T13:22:57.985Z,52.00
2018-03-04T13:25:32.150Z,49.37
2018-03-04T13:28:06.828Z,49.93
2018-03-04T13:30:40.584Z,48.97
2018-03-04T13:33:14.541Z,47.73
2018-03-04T13:35:48.473Z,48.77
2018-03-04T13:38:22.994Z,48.00
2018-03-04T13:40:57.294Z,57.58
2018-03-04T13:43:32.853Z,49.23
2018-03-04T13:46:06.889Z,58.10
2018-03-04T13:48:41.219Z,74.00
2018-03-04T13:51:15.447Z,52.90
2018-03-04T13:53:49.518Z,52.03
2018-03-04T13:56:23.475Z,51.17
2018-03-04T13:58:57.720Z,60.47
2018-03-04T14:01:32.171Z,55.30
2018-03-04T14:04:06.370Z,50.90
2018-03-04T14:06:40.389Z,56.73
2018-03-04T14:09:14.361Z,47.57
2018-03-04T14:11:48.448Z,48.53
2018-03-04T14:14:23.228Z,48.10
2018-03-04T14:16:57.425Z,47.07
2018-03-04T14:19:32.274Z,47.63
2018-03-04T14:22:06.227Z,48.40
2018-03-04T14:24:40.135Z,51.00
2018-03-04T14:27:14.706Z,55.20
2018-03-04T14:29:49.372Z,53.20
2018-03-04T14:32:23.104Z,54.23
2018-03-04T14:34:56.930Z,56.53
2018-03-04T14:37:30.857Z,54.80
2018-03-04T14:40:06.448Z,55.87
2018-03-04T14:42:40.479Z,54.87
2018-03-04T14:45:14.453Z,57.70
2018-03-04T14:47:48.243Z,57.73
2018-03-04T14:50:22.048Z,58.43
2018-03-04T14:52:55.941Z,59.67
2018-03-04T14:55:29.989Z,55.03
2018-03-04T14:58:04.029Z,56.13
2018-03-04T15:00:38.132Z,59.07
2018-03-04T15:03:12.946Z,55.90
2018-03-04T15:05:46.755Z,56.67
2018-03-04T15:08:21.156Z,57.30
2018-03-04T15:10:55.805Z,55.40
2018-03-04T15:13:31.335Z,55.77
2018-03-04T15:16:05.824Z,55.77
2018-03-04T15:18:39.962Z,57.43
2018-03-04T15:21:14.272Z,55.63
2018-03-04T15:23:48.143Z,54.67
2018-03-04T15:26:22.006Z,57.50
2018-03-04T15:28:55.791Z,56.63
2018-03-04T15:31:30.562Z,57.23
2018-03-04T15:34:04.857Z,56.07
2018-03-04T15:36:38.682Z,56.37
2018-03-04T15:39:12.558Z,56.00
2018-03-04T15:41:47.264Z,55.50
2018-03-04T15:44:21.217Z,56.53
2018-03-04T15:46:55.036Z,55.07
2018-03-04T15:49:28.801Z,55.80
2018-03-04T15:52:02.575Z,55.27
2018-03-04T15:54:37.342Z,55.43
2018-03-04T15:57:11.381Z,56.93
2018-03-04T15:59:46.850Z,56.67
2018-03-04T16:02:20.630Z,56.33
2018-03-04T16:04:55.362Z,55.83
2018-03-04T16:07:30.004Z,55.90
2018-03-04T16:10:04.009Z,56.63
2018-03-04T16:12:37.754Z,57.00
2018-03-04T16:15:11.521Z,55.57
2018-03-04T16:17:45.387Z,55.80
2018-03-04T16:20:19.260Z,54.47
2018-03-04T16:22:53.117Z,53.90
2018-03-04T16:25:27.180Z,50.77
2018-03-04T16:28:02.053Z,46.37
2018-03-04T16:30:35.826Z,22.73
2018-03-04T16:33:09.940Z,16.90
2018-03-04T16:35:44.545Z,10.80
2018-03-04T16:38:18.483Z,8.63
2018-03-04T16:40:53.042Z,7.50
2018-03-04T16:43:27.365Z,5.70
2018-03-04T16:46:01.145Z,6.17
2018-03-04T16:48:35.008Z,5.40
2018-03-04T16:51:09.473Z,6.03
2018-03-04T16:53:43.094Z,6.20
2018-03-04T16:56:16.941Z,7.27
2018-03-04T16:58:50.771Z,5.77
2018-03-04T17:01:24.451Z,6.40
2018-03-04T17:03:58.220Z,6.30
2018-03-04T17:06:32.164Z,9.70
2018-03-04T17:09:06.026Z,6.47
2018-03-04T17:11:39.814Z,9.27
2018-03-04T17:14:13.743Z,8.83
2018-03-04T17:16:48.369Z,9.77
2018-03-04T17:19:22.589Z,10.53
2018-03-04T17:21:56.338Z,9.47
2018-03-04T17:24:30.853Z,12.23
2018-03-04T17:27:05.113Z,12.47
2018-03-04T17:29:39.822Z,10.80
2018-03-04T17:32:14.322Z,10.43
2018-03-04T17:34:49.130Z,8.70
2018-03-04T17:37:23.731Z,11.53
2018-03-04T17:39:58.015Z,11.20
2018-03-04T17:42:33.570Z,11.10
2018-03-04T17:45:07.398Z,10.97
2018-03-04T17:47:41.198Z,9.13
2018-03-04T17:50:14.991Z,10.93
2018-03-04T17:52:48.649Z,9.77
2018-03-04T17:55:23.168Z,8.80
2018-03-04T17:57:57.169Z,9.77
2018-03-04T18:00:31.276Z,11.97
2018-03-04T18:03:05.829Z,11.90
2018-03-04T18:05:40.276Z,10.57
2018-03-04T18:08:14.019Z,12.17
2018-03-04T18:10:47.860Z,9.07
2018-03-04T18:13:21.663Z,11.90
2018-03-04T18:15:56.486Z,8.23
2018-03-04T18:18:30.491Z,12.33
2018-03-04T18:21:04.257Z,11.23
2018-03-04T18:23:37.986Z,12.67
2018-03-04T18:26:12.684Z,12.37
2018-03-04T18:28:46.440Z,11.27
2018-03-04T18:31:20.275Z,9.83
2018-03-04T18:33:54.034Z,9.80
2018-03-04T18:36:28.561Z,10.80
2018-03-04T18:39:02.785Z,10.90
2018-03-04T18:41:36.722Z,10.67
2018-03-04T18:44:10.535Z,10.70
2018-03-04T18:46:44.665Z,10.30
2018-03-04T18:49:18.483Z,8.43
2018-03-04T18:51:52.467Z,11.77
2018-03-04T18:54:26.202Z,12.23
2018-03-04T18:57:00.203Z,8.50
2018-03-04T18:59:34.152Z,10.07
2018-03-04T19:02:08.775Z,8.90
2018-03-04T19:04:42.800Z,10.77
2018-03-04T19:07:16.646Z,11.70
2018-03-04T19:09:50.329Z,10.97
2018-03-04T19:12:25.515Z,11.50
2018-03-04T19:14:59.872Z,12.43
2018-03-04T19:17:33.847Z,11.33
2018-03-04T19:20:07.573Z,11.07
2018-03-04T19:22:41.974Z,8.40
2018-03-04T19:25:16.109Z,9.07
2018-03-04T19:27:51.438Z,7.67
2018-03-04T19:30:25.268Z,8.37
2018-03-04T19:32:59.179Z,11.47
2018-03-04T19:35:33.038Z,10.00
2018-03-04T19:38:07.685Z,9.43
2018-03-04T19:40:42.502Z,13.47
2018-03-04T19:43:16.891Z,11.13
2018-03-04T19:45:51.332Z,11.30
2018-03-04T19:48:25.422Z,12.97
2018-03-04T19:50:59.074Z,13.37
2018-03-04T19:53:33.000Z,15.77
2018-03-04T19:56:06.614Z,11.80
2018-03-04T19:58:41.338Z,12.70
2018-03-04T20:01:15.182Z,13.07
2018-03-04T20:03:49.927Z,12.47
2018-03-04T20:06:24.434Z,13.00
2018-03-04T20:08:58.496Z,15.77
2018-03-04T20:11:33.094Z,16.27
2018-03-04T20:14:07.148Z,13.07
2018-03-04T20:16:40.818Z,15.53
2018-03-04T20:19:14.484Z,14.50
2018-03-04T20:21:48.333Z,14.90
2018-03-04T20:24:23.923Z,17.87
2018-03-04T20:26:57.968Z,14.00
2018-03-04T20:29:31.768Z,16.93
2018-03-04T20:32:06.781Z,15.97
2018-03-04T20:34:41.092Z,17.97
2018-03-04T20:37:15.136Z,14.87
2018-03-04T20:39:49.161Z,13.23
2018-03-04T20:42:23.042Z,13.53
2018-03-04T20:44:57.872Z,15.33
2018-03-04T20:47:31.796Z,14.10
2018-03-04T20:50:05.726Z,17.20
2018-03-04T20:52:41.053Z,14.57
2018-03-04T20:55:15.709Z,16.23
2018-03-04T20:57:50.482Z,18.73
2018-03-04T21:00:24.644Z,14.93
2018-03-04T21:02:59.222Z,16.37
2018-03-04T21:05:33.482Z,15.20
2018-03-04T21:08:07.446Z,14.47
2018-03-04T21:10:41.420Z,15.60
2018-03-04T21:13:15.019Z,14.83
2018-03-04T21:15:48.803Z,15.53
2018-03-04T21:18:23.284Z,18.77
2018-03-04T21:20:57.842Z,15.60
2018-03-04T21:23:31.697Z,16.53
2018-03-04T21:26:05.473Z,18.67
2018-03-04T21:28:39.222Z,23.70
2018-03-04T21:31:13.599Z,24.47
2018-03-04T21:33:47.706Z,22.87
2018-03-04T21:36:22.312Z,23.97
2018-03-04T21:38:57.104Z,22.50
2018-03-04T21:41:32.304Z,24.27
2018-03-04T21:44:07.182Z,24.10
2018-03-04T21:46:41.062Z,25.70
2018-03-04T21:49:15.047Z,26.10
2018-03-04T21:51:49.626Z,28.47
2018-03-04T21:54:24.939Z,29.00
2018-03-04T21:56:59.226Z,29.47
2018-03-04T21:59:33.247Z,31.93
2018-03-04T22:02:07.046Z,31.60
2018-03-04T22:04:41.604Z,35.37
2018-03-04T22:07:16.874Z,32.83
2018-03-04T22:09:51.057Z,31.33
2018-03-04T22:12:25.024Z,35.80
2018-03-04T22:14:58.856Z,33.83
2018-03-04T22:17:33.499Z,35.33
2018-03-04T22:20:07.548Z,35.87
2018-03-04T22:22:43.325Z,34.80
2018-03-04T22:25:17.028Z,36.30
2018-03-04T22:27:50.718Z,34.80
2018-03-04T22:30:24.602Z,35.30
2018-03-04T22:32:58.592Z,33.00
2018-03-04T22:35:32.710Z,33.77
2018-03-04T22:38:07.482Z,36.13
2018-03-04T22:40:41.707Z,34.50
2018-03-04T22:43:15.629Z,35.23
2018-03-04T22:45:49.470Z,34.87
2018-03-04T22:48:23.111Z,34.77
2018-03-04T22:50:56.757Z,33.43
2018-03-04T22:53:31.085Z,32.93
2018-03-04T22:56:05.622Z,33.33
2018-03-04T22:58:39.515Z,33.23
2018-03-04T23:01:14.154Z,32.23
2018-03-04T23:03:48.342Z,32.07
2018-03-04T23:06:22.086Z,33.30
2018-03-04T23:08:55.897Z,33.30
2018-03-04T23:11:31.002Z,34.20
2018-03-04T23:14:05.094Z,32.83
2018-03-04T23:16:39.979Z,32.73
2018-03-04T23:19:14.312Z,35.20
2018-03-04T23:21:49.084Z,35.03
2018-03-04T23:24:24.030Z,34.57
2018-03-04T23:26:57.959Z,35.87
2018-03-04T23:29:33.555Z,33.33
2018-03-04T23:32:07.297Z,31.97
2018-03-04T23:34:42.737Z,32.87
2018-03-04T23:37:16.805Z,35.40
2018-03-04T23:39:52.181Z,33.20
2018-03-04T23:42:26.311Z,34.33
2018-03-04T23:45:01.130Z,32.90
2018-03-04T23:47:35.915Z,32.57
2018-03-04T23:50:10.016Z,32.10
2018-03-04T23:52:43.861Z,33.27
2018-03-04T23:55:18.400Z,33.97
2018-03-04T23:57:52.413Z,33.20
